createdAt,value
2023-05-24T00:00:22.297Z,12.60
2023-05-24T00:02:49.274Z,12.58
2023-05-24T00:05:16.975Z,12.57
2023-05-24T00:07:43.841Z,12.54
2023-05-24T00:10:11.155Z,12.46
2023-05-24T00:12:37.910Z,12.41
2023-05-24T00:15:05.088Z,12.38
2023-05-24T00:17:32.254Z,12.38
2023-05-24T00:19:59.865Z,12.33
2023-05-24T00:22:26.648Z,12.31
2023-05-24T00:24:53.450Z,12.32
2023-05-24T00:27:20.365Z,12.34
2023-05-24T00:29:46.962Z,12.39
2023-05-24T00:32:13.756Z,12.41
2023-05-24T00:34:40.471Z,12.43
2023-05-24T00:37:07.895Z,12.41
2023-05-24T00:39:34.539Z,12.43
2023-05-24T00:42:01.207Z,12.44
2023-05-24T00:44:27.965Z,12.42
2023-05-24T00:46:55.047Z,12.29
2023-05-24T00:49:21.957Z,12.32
2023-05-24T00:51:50.221Z,12.33
2023-05-24T00:54:17.189Z,12.32
2023-05-24T00:56:44.256Z,12.32
2023-05-24T00:59:10.967Z,12.27
2023-05-24T01:01:38.598Z,12.29
2023-05-24T01:04:05.704Z,12.26
2023-05-24T01:06:45.026Z,12.27
2023-05-24T01:09:24.008Z,12.22
2023-05-24T01:12:07.126Z,12.25
2023-05-24T01:15:19.606Z,12.14
2023-05-24T01:18:07.922Z,12.12
2023-05-24T01:20:38.473Z,12.16
2023-05-24T01:23:16.750Z,12.12
2023-05-24T01:26:12.997Z,12.09
2023-05-24T01:28:41.144Z,12.05
2023-05-24T01:31:08.480Z,12.09
2023-05-24T01:33:35.146Z,12.09
2023-05-24T01:36:01.731Z,12.12
2023-05-24T01:38:28.362Z,12.08
2023-05-24T01:41:02.204Z,12.04
2023-05-24T01:43:39.642Z,12.04
2023-05-24T01:46:34.325Z,12.02
2023-05-24T01:49:18.122Z,12.03
2023-05-24T01:51:51.640Z,12.02
2023-05-24T01:54:23.207Z,12.05
2023-05-24T01:56:53.932Z,12.08
2023-05-24T01:59:23.033Z,12.08
2023-05-24T02:01:51.128Z,12.03
2023-05-24T02:04:18.302Z,11.94
2023-05-24T02:06:45.116Z,12.03
2023-05-24T02:09:11.706Z,12.03
2023-05-24T02:11:38.329Z,11.97
2023-05-24T02:14:05.057Z,11.97
2023-05-24T02:16:31.803Z,12.05
2023-05-24T02:18:58.462Z,12.05
2023-05-24T02:21:26.003Z,12.04
2023-05-24T02:23:52.617Z,12.07
2023-05-24T02:26:19.247Z,12.04
2023-05-24T02:28:46.053Z,12.05
2023-05-24T02:31:13.125Z,12.05
2023-05-24T02:33:40.538Z,12.08
2023-05-24T02:36:07.254Z,12.05
2023-05-24T02:38:34.901Z,12.06
2023-05-24T02:41:01.471Z,12.01
2023-05-24T02:43:28.093Z,11.93
2023-05-24T02:45:54.916Z,11.93
2023-05-24T02:48:21.515Z,11.90
2023-05-24T02:50:48.353Z,11.91
2023-05-24T02:53:15.021Z,11.93
2023-05-24T02:55:44.018Z,11.88
2023-05-24T02:58:13.746Z,11.89
2023-05-24T03:00:41.811Z,11.85
2023-05-24T03:03:08.582Z,11.86
2023-05-24T03:05:35.385Z,11.82
2023-05-24T03:08:02.261Z,11.86
2023-05-24T03:10:28.908Z,11.84
2023-05-24T03:12:55.850Z,11.83
2023-05-24T03:15:23.027Z,11.84
2023-05-24T03:17:49.815Z,11.83
2023-05-24T03:20:17.699Z,11.85
2023-05-24T03:22:45.437Z,11.83
2023-05-24T03:25:12.263Z,11.79
2023-05-24T03:27:38.990Z,11.83
2023-05-24T03:30:06.753Z,11.80
2023-05-24T03:32:39.854Z,11.80
2023-05-24T03:35:06.911Z,11.79
2023-05-24T03:37:33.625Z,11.75
2023-05-24T03:40:00.483Z,11.75
2023-05-24T03:42:49.854Z,11.76
2023-05-24T03:45:27.071Z,11.71
2023-05-24T03:47:57.562Z,11.75
2023-05-24T03:50:24.651Z,11.74
2023-05-24T03:52:51.442Z,11.76
2023-05-24T03:55:18.023Z,11.71
2023-05-24T03:57:44.739Z,11.71
2023-05-24T04:00:12.659Z,11.72
2023-05-24T04:02:45.925Z,11.70
2023-05-24T04:05:13.911Z,11.69
2023-05-24T04:07:41.043Z,11.64
2023-05-24T04:10:08.435Z,11.60
2023-05-24T04:12:35.618Z,11.59
2023-05-24T04:15:02.796Z,11.54
2023-05-24T04:17:35.018Z,11.59
2023-05-24T04:20:02.327Z,11.61
2023-05-24T04:22:30.430Z,11.57
2023-05-24T04:24:57.573Z,11.59
2023-05-24T04:27:26.158Z,11.56
2023-05-24T04:29:53.412Z,11.60
2023-05-24T04:32:20.096Z,11.61
2023-05-24T04:34:46.865Z,11.63
2023-05-24T04:37:17.491Z,11.64
2023-05-24T04:39:46.311Z,11.64
2023-05-24T04:42:13.146Z,11.70
2023-05-24T04:44:43.145Z,11.77
2023-05-24T04:47:10.885Z,11.81
2023-05-24T04:49:37.788Z,11.74
2023-05-24T04:52:05.249Z,11.77
2023-05-24T04:54:32.168Z,11.78
2023-05-24T04:56:58.884Z,11.67
2023-05-24T04:59:25.491Z,11.72
2023-05-24T05:01:52.227Z,11.73
2023-05-24T05:04:19.076Z,11.77
2023-05-24T05:06:46.436Z,11.89
2023-05-24T05:09:14.892Z,11.90
2023-05-24T05:11:41.883Z,11.91
2023-05-24T05:14:11.737Z,11.91
2023-05-24T05:16:39.061Z,11.97
2023-05-24T05:19:06.082Z,12.11
2023-05-24T05:22:02.659Z,12.07
2023-05-24T05:24:29.601Z,11.93
2023-05-24T05:26:56.200Z,12.03
2023-05-24T05:29:24.330Z,12.17
2023-05-24T05:31:51.522Z,12.17
2023-05-24T05:34:19.533Z,12.21
2023-05-24T05:36:46.421Z,12.35
2023-05-24T05:39:13.213Z,12.31
2023-05-24T05:41:40.624Z,12.38
2023-05-24T05:44:07.274Z,12.38
2023-05-24T05:46:34.080Z,12.23
2023-05-24T05:49:01.007Z,12.36
2023-05-24T05:51:27.711Z,12.45
2023-05-24T05:53:54.260Z,12.52
2023-05-24T05:56:21.059Z,12.52
2023-05-24T05:58:47.653Z,12.56
2023-05-24T06:01:15.972Z,12.34
2023-05-24T06:03:42.755Z,12.48
2023-05-24T06:06:09.656Z,12.48
2023-05-24T06:08:36.740Z,12.51
2023-05-24T06:11:03.729Z,12.36
2023-05-24T06:13:31.241Z,12.61
2023-05-24T06:15:58.994Z,12.57
2023-05-24T06:18:27.565Z,12.62
2023-05-24T06:20:54.175Z,12.80
2023-05-24T06:23:20.858Z,12.75
2023-05-24T06:25:47.776Z,12.59
2023-05-24T06:28:14.373Z,12.81
2023-05-24T06:30:41.294Z,12.94
2023-05-24T06:33:08.206Z,13.07
2023-05-24T06:35:34.894Z,13.08
2023-05-24T06:38:01.523Z,13.38
2023-05-24T06:40:28.109Z,13.31
2023-05-24T06:42:54.813Z,13.53
2023-05-24T06:45:21.568Z,13.66
2023-05-24T06:47:48.492Z,13.75
2023-05-24T06:50:15.196Z,14.01
2023-05-24T06:52:41.849Z,14.22
2023-05-24T06:55:08.741Z,14.04
2023-05-24T06:57:35.378Z,14.21
2023-05-24T07:00:02.005Z,14.02
2023-05-24T07:02:29.009Z,13.92
2023-05-24T07:04:55.758Z,14.19
2023-05-24T07:07:22.710Z,14.10
2023-05-24T07:09:49.358Z,14.44
2023-05-24T07:12:16.264Z,14.13
2023-05-24T07:14:43.220Z,14.06
2023-05-24T07:17:09.952Z,14.46
2023-05-24T07:19:37.136Z,14.32
2023-05-24T07:22:03.909Z,14.30
2023-05-24T07:24:30.590Z,14.73
2023-05-24T07:26:57.628Z,14.58
2023-05-24T07:29:24.702Z,14.83
2023-05-24T07:31:51.577Z,15.27
2023-05-24T07:34:21.170Z,15.51
2023-05-24T07:36:49.609Z,15.68
2023-05-24T07:39:16.462Z,15.83
2023-05-24T07:41:43.055Z,16.18
2023-05-24T07:44:09.670Z,16.31
2023-05-24T07:46:36.384Z,16.37
2023-05-24T07:49:03.318Z,16.46
2023-05-24T07:51:29.948Z,16.19
2023-05-24T07:53:57.417Z,16.13
2023-05-24T07:56:24.725Z,16.03
2023-05-24T07:58:51.864Z,15.84
2023-05-24T08:01:19.178Z,15.80
2023-05-24T08:03:46.322Z,15.74
2023-05-24T08:06:13.065Z,15.77
2023-05-24T08:08:41.004Z,15.78
2023-05-24T08:11:08.134Z,15.81
2023-05-24T08:13:34.890Z,15.46
2023-05-24T08:16:01.579Z,15.42
2023-05-24T08:18:28.345Z,15.40
2023-05-24T08:20:54.988Z,15.32
2023-05-24T08:23:21.940Z,15.36
2023-05-24T08:25:48.891Z,15.06
2023-05-24T08:28:16.938Z,15.17
2023-05-24T08:30:43.696Z,15.36
2023-05-24T08:33:10.528Z,15.25
2023-05-24T08:35:37.212Z,15.21
2023-05-24T08:38:03.850Z,15.71
2023-05-24T08:40:30.706Z,15.68
2023-05-24T08:43:01.342Z,15.66
2023-05-24T08:45:32.784Z,15.85
2023-05-24T08:48:00.022Z,15.85
2023-05-24T08:50:28.142Z,15.61
2023-05-24T08:52:56.236Z,15.35
2023-05-24T08:55:23.698Z,15.24
2023-05-24T08:57:51.383Z,15.26
2023-05-24T09:00:19.478Z,14.87
2023-05-24T09:02:47.333Z,14.79
2023-05-24T09:05:21.563Z,14.49
2023-05-24T09:07:50.162Z,14.26
2023-05-24T09:10:21.617Z,14.38
2023-05-24T09:12:55.678Z,14.37
2023-05-24T09:15:22.562Z,14.39
2023-05-24T09:17:49.259Z,14.11
2023-05-24T09:20:16.448Z,14.09
2023-05-24T09:22:44.123Z,13.96
2023-05-24T09:25:14.654Z,13.75
2023-05-24T09:27:41.720Z,13.73
2023-05-24T09:30:10.808Z,13.52
2023-05-24T09:32:38.236Z,13.52
2023-05-24T09:35:09.446Z,13.56
2023-05-24T09:37:38.854Z,13.43
2023-05-24T09:40:10.944Z,13.42
2023-05-24T09:42:38.110Z,13.26
2023-05-24T09:45:09.146Z,13.24
2023-05-24T09:47:45.491Z,13.35
2023-05-24T09:50:19.373Z,13.43
2023-05-24T09:52:46.413Z,13.30
2023-05-24T09:55:15.974Z,13.18
2023-05-24T09:57:51.906Z,13.47
2023-05-24T10:00:23.268Z,13.54
2023-05-24T10:03:03.557Z,13.41
2023-05-24T10:05:31.141Z,13.73
2023-05-24T10:07:58.820Z,13.74
2023-05-24T10:10:29.165Z,14.25
2023-05-24T10:12:57.117Z,14.38
2023-05-24T10:15:25.182Z,14.45
2023-05-24T10:17:52.713Z,14.66
2023-05-24T10:20:19.541Z,14.68
2023-05-24T10:22:47.661Z,14.77
2023-05-24T10:25:20.556Z,14.50
2023-05-24T10:27:50.937Z,14.32
2023-05-24T10:30:45.664Z,14.37
2023-05-24T10:33:14.424Z,13.82
2023-05-24T10:35:42.644Z,13.84
2023-05-24T10:38:20.035Z,13.96
2023-05-24T10:40:48.900Z,13.81
2023-05-24T10:43:17.309Z,13.84
2023-05-24T10:45:48.773Z,13.82
2023-05-24T10:48:15.633Z,13.84
2023-05-24T10:50:43.531Z,13.87
2023-05-24T10:53:22.514Z,13.70
2023-05-24T10:55:59.589Z,13.64
2023-05-24T10:58:32.953Z,13.93
2023-05-24T11:01:00.008Z,14.00
2023-05-24T11:03:33.252Z,14.20
2023-05-24T11:06:00.119Z,14.19
2023-05-24T11:08:37.724Z,14.08
2023-05-24T11:11:23.932Z,13.95
2023-05-24T11:13:57.828Z,13.94
2023-05-24T11:16:38.235Z,13.94
2023-05-24T11:19:29.156Z,13.85
2023-05-24T11:21:58.885Z,13.84
2023-05-24T11:24:26.740Z,13.81
2023-05-24T11:26:53.953Z,13.74
2023-05-24T11:29:24.103Z,13.74
2023-05-24T11:31:57.477Z,13.83
2023-05-24T11:34:24.682Z,13.87
2023-05-24T11:36:55.510Z,13.78
2023-05-24T11:39:23.676Z,14.10
2023-05-24T11:41:50.774Z,13.96
2023-05-24T11:44:19.649Z,14.12
2023-05-24T11:46:46.761Z,14.21
2023-05-24T11:49:17.504Z,14.08
2023-05-24T11:51:44.696Z,14.02
2023-05-24T11:54:11.963Z,13.93
2023-05-24T11:56:38.829Z,14.19
2023-05-24T11:59:26.416Z,14.20
2023-05-24T12:02:03.662Z,14.07
2023-05-24T12:04:32.275Z,13.82
2023-05-24T12:06:59.335Z,13.81
2023-05-24T12:09:27.034Z,13.83
2023-05-24T12:11:54.840Z,13.84
2023-05-24T12:14:30.834Z,13.84
2023-05-24T12:16:57.940Z,13.76
2023-05-24T12:21:57.415Z,13.83
2023-05-24T12:24:27.691Z,13.92
2023-05-24T12:27:01.259Z,14.08
2023-05-24T12:29:32.695Z,14.42
2023-05-24T12:32:00.045Z,14.35
2023-05-24T12:34:26.803Z,14.36
2023-05-24T12:36:53.661Z,14.42
2023-05-24T12:39:24.531Z,14.50
2023-05-24T12:41:53.515Z,14.33
2023-05-24T12:44:28.749Z,14.34
2023-05-24T12:46:56.717Z,14.16
2023-05-24T12:49:24.428Z,14.05
2023-05-24T12:51:54.621Z,13.92
2023-05-24T12:54:26.506Z,14.03
2023-05-24T12:56:56.555Z,13.88
2023-05-24T12:59:24.127Z,13.82
2023-05-24T13:01:51.917Z,13.60
2023-05-24T13:04:21.053Z,13.46
2023-05-24T13:06:48.626Z,13.55
2023-05-24T13:09:17.967Z,13.60
2023-05-24T13:11:45.562Z,13.61
2023-05-24T13:14:12.843Z,13.62
2023-05-24T13:16:39.802Z,13.48
2023-05-24T13:19:06.575Z,13.35
2023-05-24T13:21:33.754Z,13.09
2023-05-24T13:24:00.610Z,13.23
2023-05-24T13:26:27.392Z,12.92
2023-05-24T13:29:26.532Z,13.03
2023-05-24T13:31:41.918Z,13.21
2023-05-24T13:34:10.858Z,13.14
2023-05-24T13:36:38.171Z,13.48
2023-05-24T13:39:15.451Z,13.61
2023-05-24T13:41:44.152Z,13.13
2023-05-24T13:44:12.142Z,13.61
2023-05-24T13:46:39.183Z,13.92
2023-05-24T13:49:07.684Z,14.05
2023-05-24T13:51:34.475Z,14.13
2023-05-24T13:54:02.071Z,14.24
2023-05-24T13:56:33.283Z,14.17
2023-05-24T13:59:03.642Z,14.12
2023-05-24T14:01:31.071Z,14.32
2023-05-24T14:03:58.152Z,14.10
2023-05-24T14:06:24.992Z,14.28
2023-05-24T14:08:52.331Z,14.49
2023-05-24T14:11:19.682Z,14.30
2023-05-24T14:16:16.488Z,14.42
2023-05-24T14:18:43.245Z,14.71
2023-05-24T14:21:09.915Z,14.93
2023-05-24T14:23:36.548Z,14.48
2023-05-24T14:26:03.560Z,14.64
2023-05-24T14:28:30.366Z,15.14
2023-05-24T14:30:56.932Z,15.10
2023-05-24T14:33:23.630Z,14.62
2023-05-24T14:35:51.791Z,14.41
2023-05-24T14:38:18.736Z,14.30
2023-05-24T14:40:47.530Z,14.53
2023-05-24T14:43:14.397Z,14.91
2023-05-24T14:45:44.054Z,15.17
2023-05-24T14:48:11.870Z,15.04
2023-05-24T14:50:40.008Z,15.39
2023-05-24T14:53:09.781Z,15.68
2023-05-24T14:55:37.701Z,15.83
2023-05-24T14:58:09.155Z,15.86
2023-05-24T15:00:36.874Z,15.05
2023-05-24T15:03:05.982Z,15.23
2023-05-24T15:05:33.100Z,15.60
2023-05-24T15:07:59.773Z,15.49
2023-05-24T15:10:26.836Z,15.57
2023-05-24T15:12:53.477Z,15.34
2023-05-24T15:15:22.538Z,15.19
2023-05-24T15:17:49.400Z,15.34
2023-05-24T15:20:16.243Z,15.34
2023-05-24T15:22:43.033Z,15.63
2023-05-24T15:25:11.187Z,17.77
2023-05-24T15:27:37.920Z,19.05
2023-05-24T15:30:04.992Z,19.43
2023-05-24T15:32:31.820Z,18.95
2023-05-24T15:35:00.438Z,18.23
2023-05-24T15:37:27.290Z,18.35
2023-05-24T15:39:54.676Z,18.94
2023-05-24T15:42:25.174Z,19.11
2023-05-24T15:44:51.868Z,19.09
2023-05-24T15:47:21.231Z,19.33
2023-05-24T15:49:49.804Z,19.29
2023-05-24T15:52:16.698Z,19.21
2023-05-24T15:54:43.382Z,19.62
2023-05-24T15:57:10.153Z,19.54
2023-05-24T15:59:38.482Z,18.63
2023-05-24T16:02:06.230Z,18.51
2023-05-24T16:04:32.870Z,18.97
2023-05-24T16:06:59.587Z,18.87
2023-05-24T16:09:26.188Z,18.80
2023-05-24T16:11:52.806Z,18.21
2023-05-24T16:14:19.401Z,17.61
2023-05-24T16:16:46.341Z,16.91
2023-05-24T16:19:14.579Z,18.33
2023-05-24T16:21:41.420Z,18.60
2023-05-24T16:24:09.265Z,19.35
2023-05-24T16:26:44.107Z,19.71
2023-05-24T16:29:11.845Z,20.62
2023-05-24T16:31:38.507Z,20.90
2023-05-24T16:34:05.431Z,20.17
2023-05-24T16:36:32.920Z,20.52
2023-05-24T16:38:59.660Z,19.53
2023-05-24T16:41:27.329Z,18.24
2023-05-24T16:43:54.530Z,17.85
2023-05-24T16:46:23.695Z,17.92
2023-05-24T16:48:50.504Z,17.60
2023-05-24T16:51:20.288Z,16.97
2023-05-24T16:53:47.189Z,16.54
2023-05-24T16:56:13.964Z,16.41
2023-05-24T16:58:40.565Z,16.22
2023-05-24T17:01:07.503Z,15.99
2023-05-24T17:03:35.488Z,16.00
2023-05-24T17:06:05.121Z,15.85
2023-05-24T17:08:36.778Z,15.69
2023-05-24T17:11:04.739Z,15.46
2023-05-24T17:13:32.051Z,15.09
2023-05-24T17:15:59.980Z,15.00
2023-05-24T17:18:29.922Z,15.02
2023-05-24T17:21:01.864Z,14.97
2023-05-24T17:23:34.047Z,14.96
2023-05-24T17:26:02.880Z,14.88
2023-05-24T17:28:30.183Z,14.84
2023-05-24T17:30:58.190Z,14.77
2023-05-24T17:33:26.984Z,14.68
2023-05-24T17:35:56.655Z,14.56
2023-05-24T17:38:26.786Z,14.37
2023-05-24T17:40:57.134Z,14.18
2023-05-24T17:43:25.053Z,14.06
2023-05-24T17:45:51.814Z,13.98
2023-05-24T17:48:18.461Z,13.92
2023-05-24T17:50:45.077Z,13.56
2023-05-24T17:53:26.642Z,13.33
2023-05-24T17:55:57.986Z,13.40
2023-05-24T17:58:25.002Z,13.62
2023-05-24T18:00:51.743Z,13.69
2023-05-24T18:03:18.810Z,13.65
2023-05-24T18:05:45.663Z,13.54
2023-05-24T18:08:12.360Z,13.42
2023-05-24T18:10:39.046Z,13.30
2023-05-24T18:13:09.618Z,13.28
2023-05-24T18:15:36.602Z,13.02
2023-05-24T18:18:04.322Z,12.89
2023-05-24T18:20:31.199Z,12.72
2023-05-24T18:22:58.092Z,12.67
2023-05-24T18:25:25.052Z,12.58
2023-05-24T18:27:51.836Z,12.49
2023-05-24T18:30:18.670Z,12.37
2023-05-24T18:33:02.827Z,12.25
2023-05-24T18:35:32.225Z,12.15
2023-05-24T18:37:59.039Z,12.09
2023-05-24T18:40:25.817Z,12.00
2023-05-24T18:42:52.580Z,11.91
2023-05-24T18:45:19.196Z,11.79
2023-05-24T18:47:45.904Z,11.76
2023-05-24T18:50:12.614Z,11.72
2023-05-24T18:52:39.279Z,11.66
2023-05-24T18:55:10.488Z,11.59
2023-05-24T18:57:37.813Z,11.49
2023-05-24T19:00:08.764Z,11.37
2023-05-24T19:02:39.563Z,11.36
2023-05-24T19:05:07.655Z,11.34
2023-05-24T19:07:35.582Z,11.30
2023-05-24T19:10:02.819Z,11.28
2023-05-24T19:12:30.131Z,11.26
2023-05-24T19:14:57.388Z,11.28
2023-05-24T19:17:24.938Z,11.21
2023-05-24T19:19:52.786Z,11.25
2023-05-24T19:22:19.672Z,11.15
2023-05-24T19:24:46.873Z,11.06
2023-05-24T19:27:13.673Z,11.06
2023-05-24T19:29:40.835Z,10.99
2023-05-24T19:32:08.908Z,10.99
2023-05-24T19:34:37.396Z,10.91
2023-05-24T19:37:04.528Z,10.84
2023-05-24T19:39:31.340Z,10.81
2023-05-24T19:41:57.921Z,10.80
2023-05-24T19:44:24.671Z,10.74
2023-05-24T19:46:51.621Z,10.71
2023-05-24T19:49:18.240Z,10.65
2023-05-24T19:51:45.210Z,10.52
2023-05-24T19:54:12.959Z,10.53
2023-05-24T19:56:39.896Z,10.44
2023-05-24T19:59:07.364Z,10.48
2023-05-24T20:01:34.286Z,10.45
2023-05-24T20:04:01.071Z,10.43
2023-05-24T20:06:27.830Z,10.34
2023-05-24T20:08:57.826Z,10.13
2023-05-24T20:11:24.658Z,10.01
2023-05-24T20:13:52.580Z,9.91
2023-05-24T20:16:19.753Z,9.93
2023-05-24T20:18:46.602Z,9.90
2023-05-24T20:21:15.008Z,9.86
2023-05-24T20:23:41.637Z,9.78
2023-05-24T20:26:08.423Z,9.65
2023-05-24T20:28:35.408Z,9.62
2023-05-24T20:31:02.239Z,9.54
2023-05-24T20:33:28.839Z,9.46
2023-05-24T20:35:55.588Z,9.49
2023-05-24T20:38:23.335Z,9.48
2023-05-24T20:40:50.123Z,9.33
2023-05-24T20:43:16.950Z,9.33
2023-05-24T20:45:44.007Z,9.30
2023-05-24T20:48:11.400Z,9.23
2023-05-24T20:50:38.183Z,9.21
2023-05-24T20:53:04.759Z,9.12
2023-05-24T20:55:31.631Z,9.12
2023-05-24T20:57:58.501Z,9.16
2023-05-24T21:00:25.544Z,9.17
2023-05-24T21:02:52.185Z,9.09
2023-05-24T21:05:19.315Z,9.16
2023-05-24T21:07:45.960Z,9.20
2023-05-24T21:10:17.587Z,9.26
2023-05-24T21:12:44.781Z,9.34
2023-05-24T21:15:11.480Z,9.33
2023-05-24T21:17:39.415Z,9.31
2023-05-24T21:20:06.564Z,9.17
2023-05-24T21:22:33.390Z,9.25
2023-05-24T21:25:00.317Z,9.34
2023-05-24T21:27:27.596Z,9.38
2023-05-24T21:29:54.227Z,9.37
2023-05-24T21:32:21.291Z,9.30
2023-05-24T21:34:47.926Z,9.34
2023-05-24T21:37:14.487Z,9.31
2023-05-24T21:39:43.978Z,9.29
2023-05-24T21:42:10.674Z,9.35
2023-05-24T21:44:37.390Z,9.34
2023-05-24T21:47:04.991Z,9.30
2023-05-24T21:49:31.953Z,9.27
2023-05-24T21:51:58.566Z,9.33
2023-05-24T21:54:25.234Z,9.34
2023-05-24T21:56:52.077Z,9.37
2023-05-24T21:59:18.906Z,9.31
2023-05-24T22:01:45.825Z,9.33
2023-05-24T22:04:12.598Z,9.36
2023-05-24T22:06:41.418Z,9.43
2023-05-24T22:09:09.591Z,9.42
2023-05-24T22:11:36.391Z,9.44
2023-05-24T22:14:03.379Z,9.40
2023-05-24T22:16:30.306Z,9.33
2023-05-24T22:18:56.948Z,9.32
2023-05-24T22:21:23.981Z,9.47
2023-05-24T22:23:51.865Z,9.49
2023-05-24T22:26:18.583Z,9.54
2023-05-24T22:28:56.072Z,9.55
2023-05-24T22:31:25.440Z,9.57
2023-05-24T22:33:52.348Z,9.58
2023-05-24T22:36:19.056Z,9.54
2023-05-24T22:38:46.354Z,9.57
2023-05-24T22:41:12.976Z,9.55
2023-05-24T22:43:39.979Z,9.50
2023-05-24T22:46:09.214Z,9.50
2023-05-24T22:48:37.793Z,9.48
2023-05-24T22:51:04.549Z,9.52
2023-05-24T22:53:32.140Z,9.52
2023-05-24T22:55:58.907Z,9.42
2023-05-24T22:58:25.913Z,9.38
2023-05-24T23:00:52.680Z,9.34
2023-05-24T23:03:19.444Z,9.39
2023-05-24T23:05:46.109Z,9.37
2023-05-24T23:08:15.582Z,9.41
2023-05-24T23:10:45.749Z,9.33
2023-05-24T23:13:17.662Z,9.29
2023-05-24T23:15:45.309Z,9.36
2023-05-24T23:18:15.924Z,9.41
2023-05-24T23:20:42.879Z,9.38
2023-05-24T23:23:09.713Z,9.32
2023-05-24T23:25:37.820Z,9.27
2023-05-24T23:28:04.883Z,9.34
2023-05-24T23:30:32.506Z,9.32
2023-05-24T23:32:59.662Z,9.30
2023-05-24T23:35:26.348Z,9.27
2023-05-24T23:37:53.791Z,9.28
2023-05-24T23:40:20.543Z,9.24
2023-05-24T23:42:47.371Z,9.18
2023-05-24T23:45:15.662Z,9.21
2023-05-24T23:47:42.281Z,9.25
2023-05-24T23:50:09.774Z,9.29
2023-05-24T23:52:36.523Z,9.22
2023-05-24T23:55:03.797Z,9.21
2023-05-24T23:57:30.421Z,9.21
2023-05-24T23:59:58.761Z,9.16
